sensor_id;sensor_type;location;lat;lon;timestamp;P1;durP1;ratioP1;P2;durP2;ratioP2
20393;SDS011;10356;50.544;9.642;2023-05-28T00:01:51;8.77;;;5.22;;
20393;SDS011;10356;50.544;9.642;2023-05-28T00:04:17;9.05;;;5.18;;
20393;SDS011;10356;50.544;9.642;2023-05-28T00:06:44;10.73;;;5.40;;
20393;SDS011;10356;50.544;9.642;2023-05-28T00:09:12;10.32;;;5.25;;
20393;SDS011;10356;50.544;9.642;2023-05-28T00:11:39;12.85;;;5.75;;
20393;SDS011;10356;50.544;9.642;2023-05-28T00:14:07;9.90;;;4.22;;
20393;SDS011;10356;50.544;9.642;2023-05-28T00:16:34;11.25;;;5.10;;
20393;SDS011;10356;50.544;9.642;2023-05-28T00:19:02;11.18;;;5.40;;
20393;SDS011;10356;50.544;9.642;2023-05-28T00:21:28;10.65;;;5.15;;
20393;SDS011;10356;50.544;9.642;2023-05-28T00:23:57;10.27;;;4.82;;
20393;SDS011;10356;50.544;9.642;2023-05-28T00:26:24;11.57;;;5.30;;
20393;SDS011;10356;50.544;9.642;2023-05-28T00:28:52;10.38;;;5.07;;
20393;SDS011;10356;50.544;9.642;2023-05-28T00:31:19;10.40;;;5.30;;
20393;SDS011;10356;50.544;9.642;2023-05-28T00:33:45;10.02;;;5.85;;
20393;SDS011;10356;50.544;9.642;2023-05-28T00:36:12;8.52;;;5.32;;
20393;SDS011;10356;50.544;9.642;2023-05-28T00:38:38;7.63;;;4.50;;
20393;SDS011;10356;50.544;9.642;2023-05-28T00:41:05;9.25;;;4.80;;
20393;SDS011;10356;50.544;9.642;2023-05-28T00:43:32;9.43;;;4.93;;
20393;SDS011;10356;50.544;9.642;2023-05-28T00:46:00;19.13;;;11.20;;
20393;SDS011;10356;50.544;9.642;2023-05-28T00:48:29;28.63;;;17.30;;
20393;SDS011;10356;50.544;9.642;2023-05-28T00:50:56;15.73;;;10.40;;
20393;SDS011;10356;50.544;9.642;2023-05-28T00:53:23;21.63;;;11.68;;
20393;SDS011;10356;50.544;9.642;2023-05-28T00:55:50;19.77;;;11.05;;
20393;SDS011;10356;50.544;9.642;2023-05-28T00:58:18;18.50;;;11.45;;
20393;SDS011;10356;50.544;9.642;2023-05-28T01:00:45;19.63;;;10.95;;
20393;SDS011;10356;50.544;9.642;2023-05-28T01:03:13;18.45;;;11.35;;
20393;SDS011;10356;50.544;9.642;2023-05-28T01:05:40;25.17;;;16.70;;
20393;SDS011;10356;50.544;9.642;2023-05-28T01:08:07;21.92;;;14.98;;
20393;SDS011;10356;50.544;9.642;2023-05-28T01:10:35;20.25;;;13.15;;
20393;SDS011;10356;50.544;9.642;2023-05-28T01:13:02;18.65;;;10.98;;
20393;SDS011;10356;50.544;9.642;2023-05-28T01:15:31;13.88;;;7.60;;
20393;SDS011;10356;50.544;9.642;2023-05-28T01:17:58;12.18;;;6.95;;
20393;SDS011;10356;50.544;9.642;2023-05-28T01:20:28;10.13;;;5.95;;
20393;SDS011;10356;50.544;9.642;2023-05-28T01:22:59;13.98;;;6.13;;
20393;SDS011;10356;50.544;9.642;2023-05-28T01:25:32;12.57;;;6.40;;
20393;SDS011;10356;50.544;9.642;2023-05-28T01:27:59;9.40;;;5.80;;
20393;SDS011;10356;50.544;9.642;2023-05-28T01:30:27;9.70;;;5.70;;
20393;SDS011;10356;50.544;9.642;2023-05-28T01:32:54;9.32;;;5.47;;
20393;SDS011;10356;50.544;9.642;2023-05-28T01:35:20;11.48;;;5.53;;
20393;SDS011;10356;50.544;9.642;2023-05-28T01:37:50;9.57;;;5.90;;
20393;SDS011;10356;50.544;9.642;2023-05-28T01:40:18;10.82;;;5.57;;
20393;SDS011;10356;50.544;9.642;2023-05-28T01:42:47;11.32;;;5.65;;
20393;SDS011;10356;50.544;9.642;2023-05-28T01:45:20;10.63;;;5.65;;
20393;SDS011;10356;50.544;9.642;2023-05-28T01:47:47;9.45;;;5.63;;
20393;SDS011;10356;50.544;9.642;2023-05-28T01:50:15;11.05;;;5.95;;
20393;SDS011;10356;50.544;9.642;2023-05-28T01:52:41;10.35;;;6.28;;
20393;SDS011;10356;50.544;9.642;2023-05-28T01:55:09;10.98;;;6.50;;
20393;SDS011;10356;50.544;9.642;2023-05-28T01:57:36;8.20;;;5.70;;
20393;SDS011;10356;50.544;9.642;2023-05-28T02:00:05;59.47;;;37.90;;
20393;SDS011;10356;50.544;9.642;2023-05-28T02:02:34;16.38;;;11.20;;
20393;SDS011;10356;50.544;9.642;2023-05-28T02:05:01;18.45;;;10.50;;
20393;SDS011;10356;50.544;9.642;2023-05-28T02:07:28;13.18;;;6.78;;
20393;SDS011;10356;50.544;9.642;2023-05-28T02:09:55;13.18;;;7.18;;
20393;SDS011;10356;50.544;9.642;2023-05-28T02:12:21;11.15;;;6.15;;
20393;SDS011;10356;50.544;9.642;2023-05-28T02:14:47;11.45;;;6.82;;
20393;SDS011;10356;50.544;9.642;2023-05-28T02:17:15;22.05;;;12.13;;
20393;SDS011;10356;50.544;9.642;2023-05-28T02:19:44;15.48;;;9.70;;
20393;SDS011;10356;50.544;9.642;2023-05-28T02:22:10;14.65;;;8.80;;
20393;SDS011;10356;50.544;9.642;2023-05-28T02:24:37;12.88;;;7.95;;
20393;SDS011;10356;50.544;9.642;2023-05-28T02:27:04;9.02;;;6.95;;
20393;SDS011;10356;50.544;9.642;2023-05-28T02:29:31;11.23;;;6.30;;
20393;SDS011;10356;50.544;9.642;2023-05-28T02:31:58;17.33;;;7.68;;
20393;SDS011;10356;50.544;9.642;2023-05-28T02:34:26;8.57;;;6.13;;
20393;SDS011;10356;50.544;9.642;2023-05-28T02:36:54;10.95;;;6.88;;
20393;SDS011;10356;50.544;9.642;2023-05-28T02:39:20;20.27;;;9.32;;
20393;SDS011;10356;50.544;9.642;2023-05-28T02:41:47;16.48;;;10.48;;
20393;SDS011;10356;50.544;9.642;2023-05-28T02:44:13;26.92;;;14.55;;
20393;SDS011;10356;50.544;9.642;2023-05-28T02:46:40;41.25;;;22.23;;
20393;SDS011;10356;50.544;9.642;2023-05-28T02:49:07;27.17;;;15.63;;
20393;SDS011;10356;50.544;9.642;2023-05-28T02:51:35;20.70;;;11.00;;
20393;SDS011;10356;50.544;9.642;2023-05-28T02:54:01;19.83;;;11.15;;
20393;SDS011;10356;50.544;9.642;2023-05-28T02:56:28;17.30;;;9.07;;
20393;SDS011;10356;50.544;9.642;2023-05-28T02:58:54;13.88;;;7.60;;
20393;SDS011;10356;50.544;9.642;2023-05-28T03:01:20;11.93;;;6.55;;
20393;SDS011;10356;50.544;9.642;2023-05-28T03:03:47;14.52;;;7.40;;
20393;SDS011;10356;50.544;9.642;2023-05-28T03:06:13;8.65;;;5.93;;
20393;SDS011;10356;50.544;9.642;2023-05-28T03:08:42;9.07;;;5.75;;
20393;SDS011;10356;50.544;9.642;2023-05-28T03:11:09;10.07;;;5.82;;
20393;SDS011;10356;50.544;9.642;2023-05-28T03:13:35;10.02;;;5.78;;
20393;SDS011;10356;50.544;9.642;2023-05-28T03:16:01;9.88;;;5.43;;
20393;SDS011;10356;50.544;9.642;2023-05-28T03:18:28;8.65;;;5.00;;
20393;SDS011;10356;50.544;9.642;2023-05-28T03:20:54;11.48;;;5.70;;
20393;SDS011;10356;50.544;9.642;2023-05-28T03:23:21;10.23;;;5.65;;
20393;SDS011;10356;50.544;9.642;2023-05-28T03:25:49;11.45;;;5.43;;
20393;SDS011;10356;50.544;9.642;2023-05-28T03:28:15;12.00;;;6.15;;
20393;SDS011;10356;50.544;9.642;2023-05-28T03:30:42;8.80;;;5.68;;
20393;SDS011;10356;50.544;9.642;2023-05-28T03:33:08;9.13;;;5.60;;
20393;SDS011;10356;50.544;9.642;2023-05-28T03:35:35;7.77;;;5.63;;
20393;SDS011;10356;50.544;9.642;2023-05-28T03:38:01;10.23;;;6.03;;
20393;SDS011;10356;50.544;9.642;2023-05-28T03:40:29;10.07;;;5.70;;
20393;SDS011;10356;50.544;9.642;2023-05-28T03:42:57;7.32;;;5.32;;
20393;SDS011;10356;50.544;9.642;2023-05-28T03:45:24;13.68;;;6.20;;
20393;SDS011;10356;50.544;9.642;2023-05-28T03:47:50;14.82;;;5.63;;
20393;SDS011;10356;50.544;9.642;2023-05-28T03:50:16;9.35;;;5.00;;
20393;SDS011;10356;50.544;9.642;2023-05-28T03:52:43;8.80;;;5.20;;
20393;SDS011;10356;50.544;9.642;2023-05-28T03:55:09;8.95;;;5.13;;
20393;SDS011;10356;50.544;9.642;2023-05-28T03:57:36;8.50;;;5.60;;
20393;SDS011;10356;50.544;9.642;2023-05-28T04:00:04;8.75;;;5.88;;
20393;SDS011;10356;50.544;9.642;2023-05-28T04:02:34;9.77;;;5.13;;
20393;SDS011;10356;50.544;9.642;2023-05-28T04:05:00;11.13;;;5.45;;
20393;SDS011;10356;50.544;9.642;2023-05-28T04:07:27;7.28;;;4.82;;
20393;SDS011;10356;50.544;9.642;2023-05-28T04:09:53;8.88;;;4.70;;
20393;SDS011;10356;50.544;9.642;2023-05-28T04:12:20;9.85;;;4.95;;
20393;SDS011;10356;50.544;9.642;2023-05-28T04:14:46;8.57;;;5.10;;
20393;SDS011;10356;50.544;9.642;2023-05-28T04:17:14;7.13;;;5.10;;
20393;SDS011;10356;50.544;9.642;2023-05-28T04:19:41;9.75;;;4.57;;
20393;SDS011;10356;50.544;9.642;2023-05-28T04:22:07;9.15;;;5.45;;
20393;SDS011;10356;50.544;9.642;2023-05-28T04:24:34;9.05;;;4.90;;
20393;SDS011;10356;50.544;9.642;2023-05-28T04:27:00;10.00;;;4.90;;
20393;SDS011;10356;50.544;9.642;2023-05-28T04:29:27;6.07;;;4.28;;
20393;SDS011;10356;50.544;9.642;2023-05-28T04:31:55;7.13;;;4.30;;
20393;SDS011;10356;50.544;9.642;2023-05-28T04:34:23;9.23;;;4.88;;
20393;SDS011;10356;50.544;9.642;2023-05-28T04:36:50;8.35;;;4.75;;
20393;SDS011;10356;50.544;9.642;2023-05-28T04:39:17;7.68;;;4.80;;
20393;SDS011;10356;50.544;9.642;2023-05-28T04:41:44;9.15;;;5.07;;
20393;SDS011;10356;50.544;9.642;2023-05-28T04:44:11;8.40;;;4.53;;
20393;SDS011;10356;50.544;9.642;2023-05-28T04:46:40;9.73;;;4.80;;
20393;SDS011;10356;50.544;9.642;2023-05-28T04:49:08;11.38;;;5.18;;
20393;SDS011;10356;50.544;9.642;2023-05-28T04:51:36;6.25;;;4.80;;
20393;SDS011;10356;50.544;9.642;2023-05-28T04:54:03;8.98;;;5.72;;
20393;SDS011;10356;50.544;9.642;2023-05-28T04:56:30;7.80;;;4.85;;
20393;SDS011;10356;50.544;9.642;2023-05-28T04:58:57;10.60;;;5.55;;
20393;SDS011;10356;50.544;9.642;2023-05-28T05:01:23;9.65;;;5.07;;
20393;SDS011;10356;50.544;9.642;2023-05-28T05:03:50;8.07;;;5.47;;
20393;SDS011;10356;50.544;9.642;2023-05-28T05:06:17;8.63;;;4.85;;
20393;SDS011;10356;50.544;9.642;2023-05-28T05:08:44;9.25;;;5.85;;
20393;SDS011;10356;50.544;9.642;2023-05-28T05:11:11;10.80;;;5.35;;
20393;SDS011;10356;50.544;9.642;2023-05-28T05:13:37;7.78;;;4.97;;
20393;SDS011;10356;50.544;9.642;2023-05-28T05:16:04;13.98;;;5.60;;
20393;SDS011;10356;50.544;9.642;2023-05-28T05:18:31;10.23;;;5.47;;
20393;SDS011;10356;50.544;9.642;2023-05-28T05:20:57;8.77;;;4.65;;
20393;SDS011;10356;50.544;9.642;2023-05-28T05:23:25;8.85;;;5.30;;
20393;SDS011;10356;50.544;9.642;2023-05-28T05:25:53;11.75;;;5.43;;
20393;SDS011;10356;50.544;9.642;2023-05-28T05:28:20;10.32;;;6.28;;
20393;SDS011;10356;50.544;9.642;2023-05-28T05:30:46;8.07;;;4.93;;
20393;SDS011;10356;50.544;9.642;2023-05-28T05:33:13;10.82;;;5.35;;
20393;SDS011;10356;50.544;9.642;2023-05-28T05:35:39;9.18;;;5.40;;
20393;SDS011;10356;50.544;9.642;2023-05-28T05:38:06;12.73;;;5.38;;
20393;SDS011;10356;50.544;9.642;2023-05-28T05:40:32;9.95;;;5.57;;
20393;SDS011;10356;50.544;9.642;2023-05-28T05:43:00;10.30;;;5.50;;
20393;SDS011;10356;50.544;9.642;2023-05-28T05:45:26;11.02;;;5.32;;
20393;SDS011;10356;50.544;9.642;2023-05-28T05:47:53;11.43;;;5.65;;
20393;SDS011;10356;50.544;9.642;2023-05-28T05:50:20;9.88;;;5.35;;
20393;SDS011;10356;50.544;9.642;2023-05-28T05:52:46;11.68;;;6.15;;
20393;SDS011;10356;50.544;9.642;2023-05-28T05:55:13;12.20;;;5.57;;
20393;SDS011;10356;50.544;9.642;2023-05-28T05:57:39;9.20;;;5.18;;
20393;SDS011;10356;50.544;9.642;2023-05-28T06:00:08;11.75;;;5.20;;
20393;SDS011;10356;50.544;9.642;2023-05-28T06:02:36;16.98;;;5.70;;
20393;SDS011;10356;50.544;9.642;2023-05-28T06:05:03;15.75;;;5.30;;
20393;SDS011;10356;50.544;9.642;2023-05-28T06:07:31;12.55;;;5.32;;
20393;SDS011;10356;50.544;9.642;2023-05-28T06:09:57;12.75;;;5.70;;
20393;SDS011;10356;50.544;9.642;2023-05-28T06:12:24;13.77;;;5.25;;
20393;SDS011;10356;50.544;9.642;2023-05-28T06:14:50;9.05;;;4.78;;
20393;SDS011;10356;50.544;9.642;2023-05-28T06:17:18;9.93;;;5.13;;
20393;SDS011;10356;50.544;9.642;2023-05-28T06:19:45;9.60;;;5.47;;
20393;SDS011;10356;50.544;9.642;2023-05-28T06:22:14;11.18;;;5.10;;
20393;SDS011;10356;50.544;9.642;2023-05-28T06:24:41;10.93;;;4.82;;
20393;SDS011;10356;50.544;9.642;2023-05-28T06:27:07;9.30;;;4.53;;
20393;SDS011;10356;50.544;9.642;2023-05-28T06:29:34;8.50;;;5.10;;
20393;SDS011;10356;50.544;9.642;2023-05-28T06:32:00;12.50;;;5.82;;
20393;SDS011;10356;50.544;9.642;2023-05-28T06:34:28;10.65;;;4.72;;
20393;SDS011;10356;50.544;9.642;2023-05-28T06:36:55;9.82;;;4.18;;
20393;SDS011;10356;50.544;9.642;2023-05-28T06:39:21;12.48;;;5.07;;
20393;SDS011;10356;50.544;9.642;2023-05-28T06:41:48;9.38;;;4.85;;
20393;SDS011;10356;50.544;9.642;2023-05-28T06:44:15;14.20;;;5.53;;
20393;SDS011;10356;50.544;9.642;2023-05-28T06:46:41;11.25;;;5.00;;
20393;SDS011;10356;50.544;9.642;2023-05-28T06:49:07;13.63;;;5.45;;
20393;SDS011;10356;50.544;9.642;2023-05-28T06:51:35;10.90;;;4.80;;
20393;SDS011;10356;50.544;9.642;2023-05-28T06:54:02;7.55;;;4.85;;
20393;SDS011;10356;50.544;9.642;2023-05-28T06:56:29;7.47;;;4.70;;
20393;SDS011;10356;50.544;9.642;2023-05-28T06:58:55;11.00;;;4.53;;
20393;SDS011;10356;50.544;9.642;2023-05-28T07:01:21;9.73;;;4.78;;
20393;SDS011;10356;50.544;9.642;2023-05-28T07:03:48;7.32;;;4.82;;
20393;SDS011;10356;50.544;9.642;2023-05-28T07:06:15;11.35;;;5.00;;
20393;SDS011;10356;50.544;9.642;2023-05-28T07:08:42;9.98;;;4.63;;
20393;SDS011;10356;50.544;9.642;2023-05-28T07:11:10;8.65;;;4.47;;
20393;SDS011;10356;50.544;9.642;2023-05-28T07:13:37;10.32;;;4.75;;
20393;SDS011;10356;50.544;9.642;2023-05-28T07:16:04;9.45;;;4.60;;
20393;SDS011;10356;50.544;9.642;2023-05-28T07:18:30;9.32;;;4.38;;
20393;SDS011;10356;50.544;9.642;2023-05-28T07:20:57;8.57;;;4.28;;
20393;SDS011;10356;50.544;9.642;2023-05-28T07:23:23;8.52;;;4.57;;
20393;SDS011;10356;50.544;9.642;2023-05-28T07:25:51;6.45;;;4.35;;
20393;SDS011;10356;50.544;9.642;2023-05-28T07:28:18;9.93;;;4.63;;
20393;SDS011;10356;50.544;9.642;2023-05-28T07:30:44;9.73;;;4.30;;
20393;SDS011;10356;50.544;9.642;2023-05-28T07:33:11;9.65;;;4.80;;
20393;SDS011;10356;50.544;9.642;2023-05-28T07:35:37;6.60;;;3.90;;
20393;SDS011;10356;50.544;9.642;2023-05-28T07:38:04;8.18;;;4.30;;
20393;SDS011;10356;50.544;9.642;2023-05-28T07:40:31;7.53;;;4.30;;
20393;SDS011;10356;50.544;9.642;2023-05-28T07:42:58;10.85;;;4.38;;
20393;SDS011;10356;50.544;9.642;2023-05-28T07:45:25;9.70;;;4.90;;
20393;SDS011;10356;50.544;9.642;2023-05-28T07:47:51;8.93;;;4.43;;
20393;SDS011;10356;50.544;9.642;2023-05-28T07:50:18;9.45;;;4.78;;
20393;SDS011;10356;50.544;9.642;2023-05-28T07:52:44;9.32;;;4.57;;
20393;SDS011;10356;50.544;9.642;2023-05-28T07:55:12;6.88;;;4.47;;
20393;SDS011;10356;50.544;9.642;2023-05-28T07:57:38;7.80;;;4.40;;
20393;SDS011;10356;50.544;9.642;2023-05-28T08:00:07;7.70;;;4.25;;
20393;SDS011;10356;50.544;9.642;2023-05-28T08:02:40;7.30;;;3.80;;
20393;SDS011;10356;50.544;9.642;2023-05-28T08:05:07;6.60;;;4.20;;
20393;SDS011;10356;50.544;9.642;2023-05-28T08:07:34;6.15;;;4.20;;
20393;SDS011;10356;50.544;9.642;2023-05-28T08:10:00;8.25;;;4.38;;
20393;SDS011;10356;50.544;9.642;2023-05-28T08:12:27;10.35;;;4.47;;
20393;SDS011;10356;50.544;9.642;2023-05-28T08:14:53;7.63;;;4.00;;
20393;SDS011;10356;50.544;9.642;2023-05-28T08:17:22;9.95;;;3.92;;
20393;SDS011;10356;50.544;9.642;2023-05-28T08:19:49;7.72;;;3.67;;
20393;SDS011;10356;50.544;9.642;2023-05-28T08:22:15;6.80;;;3.58;;
20393;SDS011;10356;50.544;9.642;2023-05-28T08:24:42;8.23;;;4.25;;
20393;SDS011;10356;50.544;9.642;2023-05-28T08:27:08;9.85;;;4.32;;
20393;SDS011;10356;50.544;9.642;2023-05-28T08:29:35;6.45;;;4.18;;
20393;SDS011;10356;50.544;9.642;2023-05-28T08:32:02;11.02;;;4.38;;
20393;SDS011;10356;50.544;9.642;2023-05-28T08:34:30;8.20;;;4.30;;
20393;SDS011;10356;50.544;9.642;2023-05-28T08:36:56;9.40;;;3.90;;
20393;SDS011;10356;50.544;9.642;2023-05-28T08:39:23;8.65;;;4.10;;
20393;SDS011;10356;50.544;9.642;2023-05-28T08:41:52;9.88;;;4.32;;
20393;SDS011;10356;50.544;9.642;2023-05-28T08:44:19;7.32;;;3.85;;
20393;SDS011;10356;50.544;9.642;2023-05-28T08:46:46;6.35;;;3.78;;
20393;SDS011;10356;50.544;9.642;2023-05-28T08:49:13;8.02;;;4.20;;
20393;SDS011;10356;50.544;9.642;2023-05-28T08:51:44;9.25;;;4.28;;
20393;SDS011;10356;50.544;9.642;2023-05-28T08:54:15;8.45;;;4.15;;
20393;SDS011;10356;50.544;9.642;2023-05-28T08:56:42;6.93;;;3.90;;
20393;SDS011;10356;50.544;9.642;2023-05-28T08:59:10;7.15;;;4.35;;
20393;SDS011;10356;50.544;9.642;2023-05-28T09:01:37;11.25;;;4.15;;
20393;SDS011;10356;50.544;9.642;2023-05-28T09:04:04;13.50;;;4.35;;
20393;SDS011;10356;50.544;9.642;2023-05-28T09:06:31;9.23;;;3.55;;
20393;SDS011;10356;50.544;9.642;2023-05-28T09:08:59;13.65;;;4.45;;
20393;SDS011;10356;50.544;9.642;2023-05-28T09:11:26;10.27;;;4.10;;
20393;SDS011;10356;50.544;9.642;2023-05-28T09:13:53;8.13;;;4.10;;
20393;SDS011;10356;50.544;9.642;2023-05-28T09:16:20;19.90;;;3.65;;
20393;SDS011;10356;50.544;9.642;2023-05-28T09:18:48;7.25;;;3.10;;
20393;SDS011;10356;50.544;9.642;2023-05-28T09:21:17;7.53;;;4.00;;
20393;SDS011;10356;50.544;9.642;2023-05-28T09:23:45;8.15;;;3.97;;
20393;SDS011;10356;50.544;9.642;2023-05-28T09:26:17;9.00;;;4.22;;
20393;SDS011;10356;50.544;9.642;2023-05-28T09:28:45;7.28;;;4.13;;
20393;SDS011;10356;50.544;9.642;2023-05-28T09:31:12;7.15;;;3.97;;
20393;SDS011;10356;50.544;9.642;2023-05-28T09:33:41;14.15;;;4.38;;
20393;SDS011;10356;50.544;9.642;2023-05-28T09:36:08;8.18;;;3.88;;
20393;SDS011;10356;50.544;9.642;2023-05-28T09:38:38;7.90;;;4.13;;
20393;SDS011;10356;50.544;9.642;2023-05-28T09:41:17;7.78;;;4.03;;
20393;SDS011;10356;50.544;9.642;2023-05-28T09:43:45;7.88;;;3.70;;
20393;SDS011;10356;50.544;9.642;2023-05-28T09:46:12;8.88;;;3.90;;
20393;SDS011;10356;50.544;9.642;2023-05-28T09:48:38;11.68;;;4.55;;
20393;SDS011;10356;50.544;9.642;2023-05-28T09:51:05;8.73;;;4.00;;
20393;SDS011;10356;50.544;9.642;2023-05-28T09:53:37;8.73;;;4.43;;
20393;SDS011;10356;50.544;9.642;2023-05-28T09:56:09;7.90;;;4.10;;
20393;SDS011;10356;50.544;9.642;2023-05-28T09:58:39;8.95;;;3.85;;
20393;SDS011;10356;50.544;9.642;2023-05-28T10:01:13;7.05;;;4.07;;
20393;SDS011;10356;50.544;9.642;2023-05-28T10:03:42;6.95;;;3.63;;
20393;SDS011;10356;50.544;9.642;2023-05-28T10:06:11;7.80;;;3.53;;
20393;SDS011;10356;50.544;9.642;2023-05-28T10:08:42;10.15;;;3.85;;
20393;SDS011;10356;50.544;9.642;2023-05-28T10:11:13;8.80;;;4.45;;
20393;SDS011;10356;50.544;9.642;2023-05-28T10:13:43;8.07;;;4.40;;
20393;SDS011;10356;50.544;9.642;2023-05-28T10:16:10;9.98;;;4.55;;
20393;SDS011;10356;50.544;9.642;2023-05-28T10:18:38;6.10;;;3.92;;
20393;SDS011;10356;50.544;9.642;2023-05-28T10:21:06;10.43;;;4.10;;
20393;SDS011;10356;50.544;9.642;2023-05-28T10:23:34;11.32;;;4.13;;
20393;SDS011;10356;50.544;9.642;2023-05-28T10:26:02;9.68;;;4.35;;
20393;SDS011;10356;50.544;9.642;2023-05-28T10:28:29;7.80;;;3.63;;
20393;SDS011;10356;50.544;9.642;2023-05-28T10:31:01;8.27;;;4.65;;
20393;SDS011;10356;50.544;9.642;2023-05-28T10:33:29;9.23;;;4.10;;
20393;SDS011;10356;50.544;9.642;2023-05-28T10:35:57;7.97;;;4.18;;
20393;SDS011;10356;50.544;9.642;2023-05-28T10:38:26;6.78;;;4.22;;
20393;SDS011;10356;50.544;9.642;2023-05-28T10:41:00;6.95;;;3.67;;
20393;SDS011;10356;50.544;9.642;2023-05-28T10:46:17;7.53;;;4.13;;
20393;SDS011;10356;50.544;9.642;2023-05-28T10:51:45;9.77;;;4.40;;
20393;SDS011;10356;50.544;9.642;2023-05-28T10:54:21;7.63;;;3.90;;
20393;SDS011;10356;50.544;9.642;2023-05-28T10:59:39;5.95;;;3.95;;
20393;SDS011;10356;50.544;9.642;2023-05-28T11:02:10;9.00;;;4.80;;
20393;SDS011;10356;50.544;9.642;2023-05-28T11:04:37;7.13;;;3.97;;
20393;SDS011;10356;50.544;9.642;2023-05-28T11:07:04;10.82;;;4.20;;
20393;SDS011;10356;50.544;9.642;2023-05-28T11:09:31;7.43;;;3.88;;
20393;SDS011;10356;50.544;9.642;2023-05-28T11:11:58;45.45;;;7.25;;
20393;SDS011;10356;50.544;9.642;2023-05-28T11:14:28;5.68;;;3.90;;
20393;SDS011;10356;50.544;9.642;2023-05-28T11:16:59;9.85;;;4.57;;
20393;SDS011;10356;50.544;9.642;2023-05-28T11:19:27;6.25;;;3.95;;
20393;SDS011;10356;50.544;9.642;2023-05-28T11:21:53;7.88;;;3.92;;
20393;SDS011;10356;50.544;9.642;2023-05-28T11:24:21;7.25;;;4.13;;
20393;SDS011;10356;50.544;9.642;2023-05-28T11:26:48;9.63;;;3.85;;
20393;SDS011;10356;50.544;9.642;2023-05-28T11:29:17;8.95;;;4.15;;
20393;SDS011;10356;50.544;9.642;2023-05-28T11:31:44;9.82;;;4.10;;
20393;SDS011;10356;50.544;9.642;2023-05-28T11:34:10;8.43;;;3.78;;
20393;SDS011;10356;50.544;9.642;2023-05-28T11:36:39;6.63;;;3.83;;
20393;SDS011;10356;50.544;9.642;2023-05-28T11:39:06;7.38;;;4.32;;
20393;SDS011;10356;50.544;9.642;2023-05-28T11:41:33;8.18;;;4.10;;
20393;SDS011;10356;50.544;9.642;2023-05-28T11:43:59;6.38;;;3.65;;
20393;SDS011;10356;50.544;9.642;2023-05-28T11:46:26;7.78;;;4.40;;
20393;SDS011;10356;50.544;9.642;2023-05-28T11:48:53;6.70;;;4.03;;
20393;SDS011;10356;50.544;9.642;2023-05-28T11:51:19;5.45;;;4.07;;
20393;SDS011;10356;50.544;9.642;2023-05-28T11:53:48;6.63;;;4.30;;
20393;SDS011;10356;50.544;9.642;2023-05-28T11:56:14;6.72;;;3.90;;
20393;SDS011;10356;50.544;9.642;2023-05-28T11:58:43;7.25;;;4.47;;
20393;SDS011;10356;50.544;9.642;2023-05-28T12:01:12;8.63;;;4.70;;
20393;SDS011;10356;50.544;9.642;2023-05-28T12:03:39;5.30;;;3.40;;
20393;SDS011;10356;50.544;9.642;2023-05-28T12:06:06;7.53;;;3.92;;
20393;SDS011;10356;50.544;9.642;2023-05-28T12:08:32;9.65;;;3.65;;
20393;SDS011;10356;50.544;9.642;2023-05-28T12:11:00;8.48;;;3.97;;
20393;SDS011;10356;50.544;9.642;2023-05-28T12:13:31;8.05;;;4.00;;
20393;SDS011;10356;50.544;9.642;2023-05-28T12:16:05;5.40;;;3.55;;
20393;SDS011;10356;50.544;9.642;2023-05-28T12:18:32;6.72;;;3.83;;
20393;SDS011;10356;50.544;9.642;2023-05-28T12:20:59;8.95;;;3.90;;
20393;SDS011;10356;50.544;9.642;2023-05-28T12:23:25;6.15;;;3.92;;
20393;SDS011;10356;50.544;9.642;2023-05-28T12:25:52;6.55;;;3.58;;
20393;SDS011;10356;50.544;9.642;2023-05-28T12:28:20;7.97;;;4.18;;
20393;SDS011;10356;50.544;9.642;2023-05-28T12:30:48;8.32;;;4.43;;
20393;SDS011;10356;50.544;9.642;2023-05-28T12:33:17;8.88;;;4.20;;
20393;SDS011;10356;50.544;9.642;2023-05-28T12:35:44;5.82;;;3.63;;
20393;SDS011;10356;50.544;9.642;2023-05-28T12:38:11;8.82;;;4.45;;
20393;SDS011;10356;50.544;9.642;2023-05-28T12:40:38;6.72;;;3.97;;
20393;SDS011;10356;50.544;9.642;2023-05-28T12:43:05;7.40;;;3.95;;
20393;SDS011;10356;50.544;9.642;2023-05-28T12:45:34;9.57;;;4.65;;
20393;SDS011;10356;50.544;9.642;2023-05-28T12:48:00;6.68;;;3.80;;
20393;SDS011;10356;50.544;9.642;2023-05-28T12:50:27;6.65;;;3.78;;
20393;SDS011;10356;50.544;9.642;2023-05-28T12:52:53;5.43;;;3.58;;
20393;SDS011;10356;50.544;9.642;2023-05-28T12:55:20;6.85;;;4.13;;
20393;SDS011;10356;50.544;9.642;2023-05-28T12:57:47;5.63;;;3.35;;
20393;SDS011;10356;50.544;9.642;2023-05-28T13:00:13;7.47;;;3.42;;
20393;SDS011;10356;50.544;9.642;2023-05-28T13:02:42;9.65;;;4.10;;
20393;SDS011;10356;50.544;9.642;2023-05-28T13:05:08;7.22;;;4.03;;
20393;SDS011;10356;50.544;9.642;2023-05-28T13:07:35;10.20;;;3.60;;
20393;SDS011;10356;50.544;9.642;2023-05-28T13:10:02;7.45;;;3.63;;
20393;SDS011;10356;50.544;9.642;2023-05-28T13:12:29;7.07;;;4.00;;
20393;SDS011;10356;50.544;9.642;2023-05-28T13:14:58;10.45;;;3.80;;
20393;SDS011;10356;50.544;9.642;2023-05-28T13:17:24;7.53;;;3.55;;
20393;SDS011;10356;50.544;9.642;2023-05-28T13:19:52;6.88;;;3.63;;
20393;SDS011;10356;50.544;9.642;2023-05-28T13:22:19;6.65;;;3.33;;
20393;SDS011;10356;50.544;9.642;2023-05-28T13:24:46;6.07;;;3.35;;
20393;SDS011;10356;50.544;9.642;2023-05-28T13:27:12;6.38;;;3.50;;
20393;SDS011;10356;50.544;9.642;2023-05-28T13:29:39;8.00;;;3.55;;
20393;SDS011;10356;50.544;9.642;2023-05-28T13:32:07;8.75;;;3.83;;
20393;SDS011;10356;50.544;9.642;2023-05-28T13:34:34;5.93;;;3.40;;
20393;SDS011;10356;50.544;9.642;2023-05-28T13:37:02;8.05;;;3.63;;
20393;SDS011;10356;50.544;9.642;2023-05-28T13:39:34;5.10;;;3.25;;
20393;SDS011;10356;50.544;9.642;2023-05-28T13:42:01;5.35;;;3.20;;
20393;SDS011;10356;50.544;9.642;2023-05-28T13:44:31;7.43;;;3.60;;
20393;SDS011;10356;50.544;9.642;2023-05-28T13:46:58;6.07;;;3.58;;
20393;SDS011;10356;50.544;9.642;2023-05-28T13:49:24;7.97;;;3.13;;
20393;SDS011;10356;50.544;9.642;2023-05-28T13:51:51;7.90;;;3.00;;
20393;SDS011;10356;50.544;9.642;2023-05-28T13:54:19;4.75;;;2.90;;
20393;SDS011;10356;50.544;9.642;2023-05-28T13:56:45;7.82;;;3.28;;
20393;SDS011;10356;50.544;9.642;2023-05-28T13:59:12;7.40;;;3.42;;
20393;SDS011;10356;50.544;9.642;2023-05-28T14:01:38;7.10;;;3.35;;
20393;SDS011;10356;50.544;9.642;2023-05-28T14:04:05;5.90;;;3.25;;
20393;SDS011;10356;50.544;9.642;2023-05-28T14:06:31;5.05;;;2.97;;
20393;SDS011;10356;50.544;9.642;2023-05-28T14:08:58;6.05;;;2.88;;
20393;SDS011;10356;50.544;9.642;2023-05-28T14:11:26;4.82;;;3.03;;
20393;SDS011;10356;50.544;9.642;2023-05-28T14:13:52;5.28;;;3.10;;
20393;SDS011;10356;50.544;9.642;2023-05-28T14:16:19;6.53;;;3.35;;
20393;SDS011;10356;50.544;9.642;2023-05-28T14:18:45;5.60;;;2.92;;
20393;SDS011;10356;50.544;9.642;2023-05-28T14:21:12;6.15;;;3.30;;
20393;SDS011;10356;50.544;9.642;2023-05-28T14:23:38;5.20;;;2.60;;
20393;SDS011;10356;50.544;9.642;2023-05-28T14:26:05;5.20;;;3.25;;
20393;SDS011;10356;50.544;9.642;2023-05-28T14:28:32;4.65;;;2.78;;
20393;SDS011;10356;50.544;9.642;2023-05-28T14:30:59;5.15;;;2.60;;
20393;SDS011;10356;50.544;9.642;2023-05-28T14:33:26;4.93;;;3.28;;
20393;SDS011;10356;50.544;9.642;2023-05-28T14:35:53;5.07;;;2.67;;
20393;SDS011;10356;50.544;9.642;2023-05-28T14:38:20;7.13;;;3.28;;
20393;SDS011;10356;50.544;9.642;2023-05-28T14:40:46;4.85;;;2.95;;
20393;SDS011;10356;50.544;9.642;2023-05-28T14:43:13;5.18;;;2.60;;
20393;SDS011;10356;50.544;9.642;2023-05-28T14:45:41;4.55;;;2.90;;
20393;SDS011;10356;50.544;9.642;2023-05-28T14:48:07;5.57;;;2.20;;
20393;SDS011;10356;50.544;9.642;2023-05-28T14:50:34;4.00;;;2.40;;
20393;SDS011;10356;50.544;9.642;2023-05-28T14:53:00;5.10;;;2.60;;